Time;durP1;ratioP1;P1;durP2;ratioP2;P2;SDS_P1;SDS_P2;PMS_P1;PMS_P2;Temp;Humidity;BMP_temperature;BMP_pressure;BME280_temperature;BME280_humidity;BME280_pressure;Samples;Min_cycle;Max_cycle;Signal;HPM_P1;HPM_P2
2022/05/04 00:00:39;;;;;;;18.98;11.70;;;;;;;11.80;62.64;100532.22;5022373;28;20379;-41
2022/05/04 00:03:06;;;;;;;18.48;8.90;;;;;;;11.74;63.74;100534.81;5020874;28;20049;-41
2022/05/04 00:05:33;;;;;;;21.73;9.05;;;;;;;11.73;63.49;100537.41;5020307;28;20045;-39
2022/05/04 00:07:59;;;;;;;18.60;9.10;;;;;;;11.68;63.85;100529.63;5025755;28;20119;-41
2022/05/04 00:10:26;;;;;;;17.88;9.10;;;;;;;11.66;62.99;100520.97;5033927;28;20111;-41
2022/05/04 00:12:53;;;;;;;17.10;8.30;;;;;;;11.63;62.81;100529.63;5037209;28;20044;-43
2022/05/04 00:15:19;;;;;;;20.50;9.43;;;;;;;11.61;63.60;100533.06;5036002;28;20837;-42
2022/05/04 00:17:47;;;;;;;19.55;10.43;;;;;;;11.57;63.19;100525.31;5025906;28;20568;-40
2022/05/04 00:20:15;;;;;;;17.67;8.52;;;;;;;11.55;64.29;100529.59;5025221;28;20085;-42
2022/05/04 00:22:44;;;;;;;18.55;8.57;;;;;;;11.53;64.16;100531.34;5025999;28;20053;-45
2022/05/04 00:25:13;;;;;;;19.73;9.50;;;;;;;11.49;64.20;100524.44;5024866;28;20038;-39
2022/05/04 00:27:41;;;;;;;19.38;8.63;;;;;;;11.46;64.43;100519.25;5023476;28;20041;-41
2022/05/04 00:30:26;;;;;;;21.08;9.15;;;;;;;11.44;64.67;100515.75;5025758;28;20558;-41
2022/05/04 00:32:54;;;;;;;17.25;7.55;;;;;;;11.42;64.72;100512.31;5026121;28;20045;-41
2022/05/04 00:35:22;;;;;;;20.67;9.50;;;;;;;11.41;63.94;100516.63;5025984;28;20652;-40
2022/05/04 00:37:50;;;;;;;18.88;8.52;;;;;;;11.40;63.80;100508.84;5025458;28;20049;-40
2022/05/04 00:40:16;;;;;;;21.35;9.13;;;;;;;11.38;64.51;100510.59;5025781;28;20045;-41
2022/05/04 00:42:43;;;;;;;21.30;9.27;;;;;;;11.34;64.23;100504.50;5025919;28;20084;-40
2022/05/04 00:45:10;;;;;;;18.00;7.65;;;;;;;11.32;64.55;100507.09;5025645;28;20045;-42
2022/05/04 00:47:37;;;;;;;16.77;7.82;;;;;;;11.29;64.03;100507.09;5022350;28;20045;-40
2022/05/04 00:50:05;;;;;;;19.50;8.68;;;;;;;11.26;64.86;100512.28;5026394;28;20481;-43
2022/05/04 00:52:34;;;;;;;18.10;8.52;;;;;;;11.22;64.29;100510.56;5022455;28;20555;-42
2022/05/04 00:55:03;;;;;;;20.95;9.13;;;;;;;11.20;64.84;100507.09;5025804;28;20073;-42
2022/05/04 01:00:17;;;;;;;18.00;8.90;;;;;;;11.10;65.01;100492.34;5023749;28;20073;-42
2022/05/04 01:02:44;;;;;;;19.85;8.40;;;;;;;11.04;65.40;100491.50;5027110;28;20120;-39
2022/05/04 01:05:11;;;;;;;20.60;8.40;;;;;;;11.03;66.13;100488.91;5026263;28;20555;-39
2022/05/04 01:07:40;;;;;;;18.63;8.27;;;;;;;11.03;65.41;100487.19;5024474;28;20132;-41
2022/05/04 01:10:08;;;;;;;19.08;8.70;;;;;;;11.03;65.45;100492.38;5023551;28;20053;-42
2022/05/04 01:12:35;;;;;;;22.05;8.80;;;;;;;11.01;66.56;100483.69;5022788;28;20049;-42
2022/05/04 01:15:03;;;;;;;19.85;8.15;;;;;;;11.03;65.60;100487.19;5022295;28;20054;-39
2022/05/04 01:17:30;;;;;;;18.88;9.05;;;;;;;11.02;65.61;100495.78;5022659;28;20108;-40
2022/05/04 01:19:57;;;;;;;20.23;8.98;;;;;;;11.03;65.40;100494.06;5022063;28;20053;-45
2022/05/04 01:22:24;;;;;;;22.40;9.63;;;;;;;11.04;66.36;100495.81;5024775;28;20107;-44
2022/05/04 01:24:51;;;;;;;19.80;9.20;;;;;;;11.05;65.91;100489.78;5020523;28;20056;-40
2022/05/04 01:27:18;;;;;;;24.23;9.45;;;;;;;11.04;65.78;100493.22;5023040;28;20107;-45
2022/05/04 01:29:46;;;;;;;21.95;8.93;;;;;;;11.05;65.60;100497.56;5020346;28;20049;-40
2022/05/04 01:32:14;;;;;;;25.95;9.57;;;;;;;11.04;65.62;100488.91;5026584;28;20084;-43
2022/05/04 01:34:40;;;;;;;19.67;8.73;;;;;;;11.05;65.91;100485.44;5027479;28;20058;-39
2022/05/04 01:37:11;;;;;;;19.92;8.98;;;;;;;11.05;65.70;100484.59;5023925;28;20128;-55
2022/05/04 01:39:38;;;;;;;20.75;9.75;;;;;;;11.03;65.80;100482.00;5028651;28;20041;-43
2022/05/04 01:42:05;;;;;;;21.75;9.13;;;;;;;11.03;65.49;100479.41;5024680;28;20506;-43
2022/05/04 01:44:33;;;;;;;22.83;8.90;;;;;;;11.01;65.55;100483.69;5025123;28;20140;-44
2022/05/04 01:47:00;;;;;;;23.58;9.95;;;;;;;11.00;66.66;100489.75;5026029;28;20050;-39
2022/05/04 01:49:27;;;;;;;19.25;8.60;;;;;;;10.99;65.51;100477.66;5024519;28;20103;-39
2022/05/04 01:51:54;;;;;;;20.83;8.80;;;;;;;10.99;66.01;100477.66;5027973;28;20045;-40
2022/05/04 01:54:20;;;;;;;20.40;9.40;;;;;;;10.96;65.82;100475.06;5021908;28;20049;-43
2022/05/04 01:56:47;;;;;;;22.23;8.82;;;;;;;10.95;65.98;100483.72;5025698;28;20515;-39
2022/05/04 01:59:14;;;;;;;18.70;8.68;;;;;;;10.92;65.88;100474.16;5026662;28;20564;-40
2022/05/04 02:01:41;;;;;;;20.65;8.38;;;;;;;10.92;66.24;100475.91;5019828;28;20049;-42
2022/05/04 02:04:08;;;;;;;21.88;9.50;;;;;;;10.86;66.33;100473.28;5026707;28;20646;-45
2022/05/04 02:06:36;;;;;;;21.58;9.43;;;;;;;10.84;66.68;100469.84;5026904;28;20183;-41
2022/05/04 02:09:04;;;;;;;23.65;9.93;;;;;;;10.80;66.39;100467.25;5025952;28;20060;-44
2022/05/04 02:11:32;;;;;;;20.25;8.98;;;;;;;10.78;66.54;100458.59;5023682;28;20111;-46
2022/05/04 02:14:00;;;;;;;21.65;9.25;;;;;;;10.77;66.97;100458.56;5019864;28;20126;-39
2022/05/04 02:16:26;;;;;;;23.00;9.20;;;;;;;10.75;66.93;100452.53;5027207;28;20041;-41
2022/05/04 02:18:53;;;;;;;23.48;10.00;;;;;;;10.74;66.68;100445.63;5025547;28;20990;-44
2022/05/04 02:21:20;;;;;;;24.60;9.45;;;;;;;10.73;66.97;100449.94;5022269;28;20053;-38
2022/05/04 02:23:46;;;;;;;25.02;10.45;;;;;;;10.71;66.87;100441.28;5022963;28;20048;-40
2022/05/04 02:26:13;;;;;;;21.17;9.27;;;;;;;10.71;66.62;100445.63;5023515;28;20049;-41
2022/05/04 02:28:39;;;;;;;24.95;10.60;;;;;;;10.70;66.92;100442.16;5024203;28;20560;-41
2022/05/04 02:31:06;;;;;;;24.92;9.48;;;;;;;10.71;66.81;100430.09;5027073;28;20540;-40
2022/05/04 02:33:32;;;;;;;21.67;9.40;;;;;;;10.70;66.32;100430.94;5021643;28;20119;-41
2022/05/04 02:38:46;;;;;;;21.38;9.23;;;;;;;10.68;66.48;100436.13;5025555;28;20760;-44
2022/05/04 02:41:13;;;;;;;24.23;9.77;;;;;;;10.69;66.76;100440.44;5023504;28;20060;-40
2022/05/04 02:43:40;;;;;;;21.85;9.50;;;;;;;10.68;67.19;100436.13;5024862;28;20054;-43
2022/05/04 02:46:13;;;;;;;23.25;9.52;;;;;;;10.68;67.33;100436.13;5025094;28;20076;-39
2022/05/04 02:48:40;;;;;;;22.75;10.07;;;;;;;10.69;67.61;100431.78;5026387;28;20050;-39
2022/05/04 02:51:07;;;;;;;23.67;11.23;;;;;;;10.68;67.15;100438.72;5024662;28;20449;-40
2022/05/04 02:53:34;;;;;;;23.75;10.02;;;;;;;10.69;67.20;100437.84;5023291;28;20053;-42
2022/05/04 02:56:01;;;;;;;24.73;10.15;;;;;;;10.68;67.12;100441.31;5028140;28;20506;-41
2022/05/04 02:58:28;;;;;;;26.48;10.10;;;;;;;10.69;66.88;100426.59;5026671;28;20050;-40
2022/05/04 03:00:54;;;;;;;24.52;11.10;;;;;;;10.68;67.68;100428.34;5020432;28;21024;-45
2022/05/04 03:03:21;;;;;;;25.25;10.55;;;;;;;10.68;67.40;100425.75;5025301;28;20123;-39
2022/05/04 03:05:48;;;;;;;24.77;9.90;;;;;;;10.67;67.04;100421.41;5025337;28;20536;-41
2022/05/04 03:08:14;;;;;;;27.67;10.85;;;;;;;10.67;67.55;100431.78;5024975;28;20049;-44
2022/05/04 03:13:28;;;;;;;26.70;10.30;;;;;;;10.63;67.38;100411.91;5024161;28;20058;-40
2022/05/04 03:15:55;;;;;;;26.23;10.10;;;;;;;10.64;67.98;100421.44;5022624;28;20046;-44
2022/05/04 03:18:21;;;;;;;22.88;9.60;;;;;;;10.62;67.87;100415.38;5024940;28;20053;-42
2022/05/04 03:20:48;;;;;;;27.77;11.30;;;;;;;10.60;67.52;100414.53;5018898;28;20054;-40
2022/05/04 03:23:14;;;;;;;25.52;10.60;;;;;;;10.60;67.37;100419.69;5024741;28;20049;-42
2022/05/04 03:25:41;;;;;;;24.58;10.32;;;;;;;10.60;67.86;100406.75;5023032;28;20053;-42
2022/05/04 03:28:08;;;;;;;28.65;11.07;;;;;;;10.58;68.16;100416.22;5023806;28;20045;-39
2022/05/04 03:30:34;;;;;;;27.65;11.15;;;;;;;10.58;67.75;100421.41;5027250;28;20045;-41
2022/05/04 03:33:01;;;;;;;27.15;11.30;;;;;;;10.56;68.25;100415.34;5022202;28;20050;-40
2022/05/04 03:35:27;;;;;;;26.08;10.48;;;;;;;10.54;68.19;100412.78;5024495;28;20046;-42
2022/05/04 03:37:54;;;;;;;26.80;11.55;;;;;;;10.53;68.13;100404.13;5023658;28;20399;-39
2022/05/04 03:40:20;;;;;;;29.98;11.63;;;;;;;10.52;68.22;100410.16;5023050;28;20111;-41
2022/05/04 03:42:49;;;;;;;29.65;11.73;;;;;;;10.53;68.29;100404.13;5026562;28;20053;-38
2022/05/04 03:45:16;;;;;;;28.67;11.25;;;;;;;10.54;68.14;100402.41;5024594;28;20049;-40
2022/05/04 03:47:42;;;;;;;29.23;11.93;;;;;;;10.54;68.29;100403.25;5023212;28;20089;-44
2022/05/04 03:50:09;;;;;;;29.55;12.13;;;;;;;10.53;68.21;100411.91;5024113;28;20049;-40
2022/05/04 03:52:36;;;;;;;32.92;11.70;;;;;;;10.52;68.23;100399.81;5023927;28;20053;-39
2022/05/04 03:55:02;;;;;;;29.55;12.45;;;;;;;10.53;68.68;100393.75;5022901;28;20103;-43
2022/05/04 03:57:29;;;;;;;30.35;11.27;;;;;;;10.54;69.05;100394.66;5024097;28;20075;-40
2022/05/04 03:59:55;;;;;;;29.15;11.80;;;;;;;10.54;68.50;100397.22;5025494;28;20053;-41
2022/05/04 04:02:22;;;;;;;31.38;11.23;;;;;;;10.52;68.27;100389.44;5025134;28;20099;-41
2022/05/04 04:04:49;;;;;;;30.35;11.20;;;;;;;10.52;68.62;100389.44;5022560;28;20052;-39
2022/05/04 04:07:16;;;;;;;31.55;12.45;;;;;;;10.52;68.78;100389.44;5022793;28;20046;-41
2022/05/04 04:09:42;;;;;;;33.80;12.23;;;;;;;10.49;69.11;100380.78;5022862;28;20069;-39
2022/05/04 04:12:09;;;;;;;29.10;11.45;;;;;;;10.49;69.20;100385.97;5025480;28;20091;-46
2022/05/04 04:14:36;;;;;;;30.42;12.13;;;;;;;10.47;68.81;100378.19;5026456;28;20049;-44
2022/05/04 04:17:03;;;;;;;32.13;11.70;;;;;;;10.47;69.25;100380.78;5024499;28;20045;-41
2022/05/04 04:21:50;;;;;;;30.92;12.30;;;;;;;10.46;69.30;100386.84;5022623;28;20696;-47
2022/05/04 04:22:33;;;;;;;32.47;11.82;;;;;;;10.45;68.73;100382.53;5022713;28;20045;-41
2022/05/04 04:25:00;;;;;;;28.48;10.93;;;;;;;10.45;68.82;100385.13;5024794;28;20045;-43
2022/05/04 04:27:27;;;;;;;29.38;10.75;;;;;;;10.46;68.85;100383.38;5021059;28;20092;-39
2022/05/04 04:29:53;;;;;;;30.48;11.50;;;;;;;10.44;69.20;100377.31;5024768;28;20053;-42
2022/05/04 04:32:20;;;;;;;31.77;11.85;;;;;;;10.44;69.27;100385.94;5025118;28;20059;-41
2022/05/04 04:34:48;;;;;;;32.85;11.98;;;;;;;10.42;68.91;100382.47;5022715;28;20060;-39
2022/05/04 04:37:14;;;;;;;32.17;11.77;;;;;;;10.44;69.34;100379.88;5020159;28;20486;-39
2022/05/04 04:39:41;;;;;;;29.15;11.43;;;;;;;10.43;69.76;100384.19;5020101;28;20127;-40
2022/05/04 04:42:08;;;;;;;33.15;12.55;;;;;;;10.43;69.46;100380.75;5023606;28;20095;-43
2022/05/04 04:44:52;;;;;;;29.40;11.77;;;;;;;10.40;69.85;100379.88;5024058;28;20099;-42
2022/05/04 04:47:19;;;;;;;31.42;11.52;;;;;;;10.38;69.67;100380.72;5027240;28;20478;-39
2022/05/04 04:49:45;;;;;;;29.15;11.07;;;;;;;10.37;70.01;100379.84;5023032;28;20103;-41
2022/05/04 04:52:12;;;;;;;30.45;10.98;;;;;;;10.37;70.25;100379.00;5021948;28;20061;-42
2022/05/04 04:54:38;;;;;;;31.98;11.43;;;;;;;10.39;70.04;100377.28;5024483;28;20041;-44
2022/05/04 04:57:05;;;;;;;29.38;11.05;;;;;;;10.40;70.15;100384.19;5022376;28;20061;-43
2022/05/04 04:59:32;;;;;;;31.88;11.05;;;;;;;10.42;69.93;100382.47;5026576;28;20053;-43
2022/05/04 05:01:58;;;;;;;32.72;11.20;;;;;;;10.44;69.82;100385.06;5023635;28;20079;-39
2022/05/04 05:04:25;;;;;;;33.42;11.75;;;;;;;10.44;70.33;100393.72;5021712;28;20239;-40
2022/05/04 05:06:52;;;;;;;33.88;12.68;;;;;;;10.45;69.92;100398.06;5028031;28;20385;-40
2022/05/04 05:09:18;;;;;;;28.48;10.95;;;;;;;10.46;69.92;100394.59;5026730;28;20045;-42
2022/05/04 05:11:45;;;;;;;30.90;11.75;;;;;;;10.48;69.69;100385.13;5025036;28;20764;-42
2022/05/04 05:16:58;;;;;;;28.40;10.55;;;;;;;10.49;70.46;100379.09;5014788;28;20103;-39
2022/05/04 05:19:25;;;;;;;28.35;11.13;;;;;;;10.52;70.30;100384.28;5029616;28;20045;-40
2022/05/04 05:21:52;;;;;;;28.83;11.15;;;;;;;10.53;70.06;100385.13;5026317;28;20054;-45
2022/05/04 05:24:18;;;;;;;29.00;11.40;;;;;;;10.54;70.21;100392.91;5025262;28;20053;-42
2022/05/04 05:26:45;;;;;;;29.38;11.63;;;;;;;10.57;70.34;100391.19;5030705;28;20058;-41
2022/05/04 05:29:12;;;;;;;29.38;11.50;;;;;;;10.62;69.97;100394.66;5030302;28;20049;-39
2022/05/04 05:31:38;;;;;;;31.05;10.93;;;;;;;10.62;70.57;100392.06;5027056;28;20110;-41
2022/05/04 05:34:05;;;;;;;33.38;11.95;;;;;;;10.66;69.91;100393.78;5028650;28;20124;-42
2022/05/04 05:36:31;;;;;;;29.67;11.80;;;;;;;10.68;70.16;100399.84;5027943;28;20103;-39
2022/05/04 05:38:58;;;;;;;30.70;11.40;;;;;;;10.69;70.47;100401.56;5027045;28;20053;-39
2022/05/04 05:41:25;;;;;;;33.20;13.63;;;;;;;10.71;70.50;100393.81;5029686;28;20543;-44
2022/05/04 05:43:52;;;;;;;32.25;13.55;;;;;;;10.72;70.36;100406.78;5030203;28;20053;-43
2022/05/04 05:46:18;;;;;;;29.45;11.55;;;;;;;10.76;70.43;100403.31;5025261;28;20493;-41
2022/05/04 05:48:47;;;;;;;34.75;13.02;;;;;;;10.78;70.63;100396.41;5028252;28;20041;-43
2022/05/04 05:51:13;;;;;;;32.10;11.77;;;;;;;10.83;70.95;100403.31;5026420;28;20103;-42
2022/05/04 05:53:40;;;;;;;33.92;13.02;;;;;;;10.87;69.86;100399.88;5027405;28;20596;-42
2022/05/04 05:56:07;;;;;;;30.80;11.52;;;;;;;10.93;70.15;100398.19;5027308;28;20053;-40
2022/05/04 05:58:33;;;;;;;31.73;11.30;;;;;;;10.98;70.17;100395.56;5027853;28;20127;-43
2022/05/04 06:01:00;;;;;;;29.92;11.45;;;;;;;11.02;70.41;100394.72;5026689;28;20076;-42
2022/05/04 06:03:26;;;;;;;34.03;12.20;;;;;;;11.05;70.04;100399.91;5027500;28;20498;-41
2022/05/04 06:05:53;;;;;;;30.38;12.98;;;;;;;11.07;70.49;100397.31;5027180;28;20093;-40
2022/05/04 06:08:19;;;;;;;30.42;12.18;;;;;;;11.12;70.26;100400.78;5025826;28;20087;-40
2022/05/04 06:10:46;;;;;;;32.17;13.32;;;;;;;11.19;70.81;100396.47;5025395;28;20456;-40
2022/05/04 06:13:13;;;;;;;29.27;11.75;;;;;;;11.22;70.00;100401.66;5027876;28;20405;-44
2022/05/04 06:15:39;;;;;;;29.80;10.45;;;;;;;11.27;70.41;100399.03;5028236;28;20111;-39
2022/05/04 06:18:06;;;;;;;24.40;9.77;;;;;;;11.32;70.30;100398.19;5028912;28;20041;-41
2022/05/04 06:20:33;;;;;;;24.45;10.68;;;;;;;11.36;69.58;100398.19;5028059;28;20535;-43
2022/05/04 06:22:59;;;;;;;27.25;10.20;;;;;;;11.39;70.06;100401.63;5027629;28;20049;-39
2022/05/04 06:25:26;;;;;;;25.48;9.82;;;;;;;11.41;70.49;100402.50;5028088;28;20123;-40
2022/05/04 06:27:53;;;;;;;26.80;11.57;;;;;;;11.46;69.97;100399.91;5028204;28;20050;-39
2022/05/04 06:35:52;;;;;;;26.20;11.10;;;;;;;11.53;69.89;100409.44;5027255;28;23189;-41
2022/05/04 06:38:19;;;;;;;23.40;10.48;;;;;;;11.56;70.51;100416.34;5028640;28;20049;-46
2022/05/04 06:40:45;;;;;;;30.27;13.93;;;;;;;11.59;69.90;100410.28;5026936;28;20416;-39
2022/05/04 06:43:12;;;;;;;29.90;12.25;;;;;;;11.61;70.47;100408.53;5025135;28;20041;-43
2022/05/04 06:45:39;;;;;;;26.90;12.05;;;;;;;11.63;70.22;100412.00;5028438;28;20046;-42
2022/05/04 06:48:06;;;;;;;31.80;12.60;;;;;;;11.62;69.56;100402.50;5026788;28;20041;-43
2022/05/04 06:50:33;;;;;;;24.75;10.98;;;;;;;11.64;69.86;100404.22;5027708;28;20049;-38
2022/05/04 06:53:00;;;;;;;22.50;9.57;;;;;;;11.68;69.72;100399.88;5029123;28;20091;-41
2022/05/04 06:55:26;;;;;;;25.83;10.15;;;;;;;11.72;69.92;100399.00;5027160;28;20053;-42
2022/05/04 06:57:53;;;;;;;24.73;9.63;;;;;;;11.76;70.46;100398.13;5028695;28;20515;-45
2022/05/04 07:00:20;;;;;;;22.60;9.80;;;;;;;11.82;70.78;100398.13;5026831;28;20053;-40
2022/05/04 07:02:47;;;;;;;26.33;10.88;;;;;;;11.88;69.45;100406.75;5026255;28;20053;-41
2022/05/04 07:05:13;;;;;;;25.52;9.48;;;;;;;11.90;70.54;100412.81;5026646;28;20462;-43
2022/05/04 07:07:41;;;;;;;19.48;7.90;;;;;;;11.91;70.08;100404.16;5027718;28;20041;-43
2022/05/04 07:10:08;;;;;;;21.90;8.88;;;;;;;11.91;69.80;100406.75;5027603;28;20080;-44
2022/05/04 07:12:35;;;;;;;21.08;8.38;;;;;;;11.92;69.91;100405.91;5027127;28;20100;-41
2022/05/04 07:15:03;;;;;;;21.90;8.38;;;;;;;11.94;70.30;100401.56;5026983;28;20049;-44
2022/05/04 07:17:30;;;;;;;19.85;9.52;;;;;;;11.94;69.74;100417.13;5028016;28;20571;-40
2022/05/04 07:19:57;;;;;;;20.65;8.65;;;;;;;11.95;69.53;100414.53;5027656;28;20045;-42
2022/05/04 07:22:24;;;;;;;22.67;8.55;;;;;;;11.94;70.26;100404.16;5026912;28;20053;-42
2022/05/04 07:24:51;;;;;;;21.48;8.98;;;;;;;11.92;69.92;100404.16;5026635;28;20485;-46
2022/05/04 07:27:35;;;;;;;24.35;8.45;;;;;;;11.94;70.01;100406.75;5020042;28;20068;-45
2022/05/04 07:30:01;;;;;;;23.17;8.00;;;;;;;11.98;69.97;100403.28;5027074;28;20053;-41
2022/05/04 07:32:28;;;;;;;21.48;8.35;;;;;;;12.00;70.44;100417.13;5027968;28;20045;-45
2022/05/04 07:34:54;;;;;;;25.92;9.23;;;;;;;12.00;70.27;100422.31;5025085;28;20056;-42
2022/05/04 07:37:21;;;;;;;27.73;10.38;;;;;;;12.01;70.99;100418.84;5022746;28;20075;-40
2022/05/04 07:42:34;;;;;;;22.02;9.82;;;;;;;12.01;70.16;100426.63;5023262;28;20444;-41
2022/05/04 07:45:04;;;;;;;23.95;8.57;;;;;;;11.99;70.52;100427.50;5021046;28;20046;-43
2022/05/04 07:47:33;;;;;;;19.35;9.13;;;;;;;11.97;70.47;100432.72;5026839;28;20080;-44
2022/05/04 07:50:00;;;;;;;23.45;8.85;;;;;;;11.96;71.07;100433.59;5003615;28;20061;-44
2022/05/04 07:52:27;;;;;;;23.52;8.50;;;;;;;11.95;70.86;100424.03;5023899;28;20104;-39
2022/05/04 07:54:54;;;;;;;23.95;8.85;;;;;;;11.94;71.01;100422.31;5025857;28;20041;-42
2022/05/04 07:57:22;;;;;;;21.52;8.68;;;;;;;11.96;70.48;100418.00;5025966;28;20049;-45
2022/05/04 08:05:24;;;;;;;22.55;8.82;;;;;;;12.17;71.19;100418.84;5007712;28;20072;-40
2022/05/04 08:07:52;;;;;;;22.38;9.13;;;;;;;12.28;71.56;100417.06;5023216;28;20041;-39
2022/05/04 08:10:18;;;;;;;21.60;9.10;;;;;;;12.39;71.50;100403.19;5021090;28;20046;-40
2022/05/04 08:12:45;;;;;;;24.50;10.75;;;;;;;12.52;70.99;100415.22;5022290;28;21087;-40
2022/05/04 08:15:12;;;;;;;22.70;10.18;;;;;;;12.69;71.29;100419.47;5020715;28;20119;-41
2022/05/04 08:17:39;;;;;;;24.75;9.43;;;;;;;12.82;70.95;100418.53;5025654;28;20115;-38
2022/05/04 08:20:06;;;;;;;22.33;8.55;;;;;;;12.90;70.66;100412.44;5027040;28;20041;-39
2022/05/04 08:22:32;;;;;;;20.30;8.13;;;;;;;12.91;70.94;100412.41;5024474;28;20123;-43
2022/05/04 08:24:59;;;;;;;18.35;8.38;;;;;;;12.94;69.76;100411.53;5024471;28;20115;-41
2022/05/04 08:27:26;;;;;;;22.83;8.57;;;;;;;12.97;70.79;100406.31;5021916;28;20167;-39
2022/05/04 08:29:53;;;;;;;23.15;9.32;;;;;;;13.07;70.97;100410.56;5023839;28;20058;-41
2022/05/04 08:32:20;;;;;;;21.65;8.68;;;;;;;13.19;70.99;100411.34;5024667;28;20132;-40
2022/05/04 08:34:47;;;;;;;19.75;8.73;;;;;;;13.25;70.39;100400.91;5026783;28;20107;-40
2022/05/04 08:37:13;;;;;;;20.35;8.65;;;;;;;13.28;70.17;100406.09;5020843;28;20064;-39
2022/05/04 08:39:40;;;;;;;22.23;8.95;;;;;;;13.39;70.38;100402.50;5025658;28;20049;-40
2022/05/04 08:42:07;;;;;;;20.48;8.10;;;;;;;13.45;70.04;100403.31;5027867;28;20575;-44
2022/05/04 08:44:34;;;;;;;18.08;8.13;;;;;;;13.55;69.76;100400.66;5029127;28;20056;-40
2022/05/04 08:47:04;;;;;;;18.63;7.68;;;;;;;13.59;69.20;100405.84;5028934;28;20049;-43
2022/05/04 08:49:33;;;;;;;19.25;8.70;;;;;;;13.65;69.08;100399.72;5026794;28;20049;-43
2022/05/04 08:52:00;;;;;;;19.98;8.90;;;;;;;13.74;69.08;100401.34;5026954;28;20099;-42
2022/05/04 08:54:26;;;;;;;19.48;8.60;;;;;;;13.86;70.07;100408.16;5031302;28;20072;-40
2022/05/04 08:56:53;;;;;;;18.05;8.63;;;;;;;13.98;68.77;100400.22;5028699;28;20107;-40
2022/05/04 08:59:20;;;;;;;19.73;8.70;;;;;;;14.06;68.40;100402.75;5027321;28;20444;-41
2022/05/04 09:01:47;;;;;;;21.02;8.90;;;;;;;14.19;68.83;100400.00;5025619;28;20042;-42
2022/05/04 09:04:14;;;;;;;19.05;8.38;;;;;;;14.28;69.06;100399.88;5021314;28;20058;-41
2022/05/04 09:06:43;;;;;;;20.02;8.35;;;;;;;14.42;67.83;100401.44;5025458;28;20551;-43
2022/05/04 09:09:11;;;;;;;19.77;8.07;;;;;;;14.65;67.97;100402.00;5029631;28;20057;-41
2022/05/04 09:14:19;;;;;;;21.02;9.82;;;;;;;14.80;67.46;100402.69;5051178;28;20875;-38
2022/05/04 09:16:47;;;;;;;25.08;10.82;;;;;;;14.99;67.34;100403.28;4986169;28;20053;-41
2022/05/04 09:19:18;;;;;;;19.10;10.43;;;;;;;15.28;67.41;100398.47;4983470;28;20054;-43
2022/05/04 09:21:47;;;;;;;21.45;9.48;;;;;;;15.44;67.15;100398.22;4982453;28;20132;-41
2022/05/04 09:24:15;;;;;;;18.00;8.45;;;;;;;15.50;66.26;100400.72;4982392;28;20451;-43
2022/05/04 09:26:43;;;;;;;20.85;10.30;;;;;;;15.59;65.68;100397.06;4982828;28;20050;-39
2022/05/04 09:29:12;;;;;;;18.25;8.68;;;;;;;15.65;66.12;100397.84;4996572;28;20124;-40
2022/05/04 09:31:41;;;;;;;18.88;9.27;;;;;;;15.72;65.81;100400.31;4982381;28;20054;-43
2022/05/04 09:34:09;;;;;;;16.00;8.82;;;;;;;15.78;65.65;100403.69;4983186;28;20145;-43
2022/05/04 09:47:46;;;;;;;17.13;8.15;;;;;;;15.62;63.32;100392.66;5036987;28;20409;-42
2022/05/04 09:50:15;;;;;;;16.02;7.22;;;;;;;15.41;64.16;100386.94;4984591;28;20073;-41
2022/05/04 09:52:48;;;;;;;15.75;6.47;;;;;;;15.38;64.35;100394.84;4984465;28;20127;-42
2022/05/04 09:55:17;;;;;;;15.95;6.70;;;;;;;15.37;64.23;100397.47;5003616;28;20051;-39
2022/05/04 09:57:46;;;;;;;11.43;6.25;;;;;;;15.32;64.18;100397.53;5009654;28;20049;-41
2022/05/04 10:00:14;;;;;;;12.75;6.03;;;;;;;15.15;64.15;100398.69;4983808;28;20054;-41
2022/05/04 10:02:44;;;;;;;13.18;5.72;;;;;;;15.04;64.12;100406.66;4984990;28;20054;-40
2022/05/04 10:05:12;;;;;;;12.50;5.20;;;;;;;14.96;64.53;100395.50;4983734;28;20054;-41
2022/05/04 10:07:41;;;;;;;12.55;5.10;;;;;;;14.97;64.65;100398.97;5000161;28;20074;-41
2022/05/04 10:10:10;;;;;;;13.07;5.57;;;;;;;15.03;64.71;100393.66;4984788;28;20050;-42
2022/05/04 10:12:40;;;;;;;10.90;4.57;;;;;;;15.03;64.54;100398.88;4982600;28;20082;-41
2022/05/04 10:15:08;;;;;;;10.10;4.93;;;;;;;14.94;64.18;100401.63;4984522;28;20126;-39
2022/05/04 10:17:40;;;;;;;12.10;5.95;;;;;;;14.93;64.68;100392.91;5004042;28;20042;-41
2022/05/04 10:20:18;;;;;;;11.18;5.53;;;;;;;14.85;64.14;100400.88;4980604;28;20082;-41
2022/05/04 10:23:24;;;;;;;11.00;5.13;;;;;;;14.80;64.48;100397.50;4996600;28;20399;-39
2022/05/04 10:28:36;;;;;;;20.38;8.02;;;;;;;14.94;65.34;100399.00;5022565;27;20418;-44
2022/05/04 10:31:10;;;;;;;12.55;5.47;;;;;;;15.00;64.58;100399.78;5008818;28;20095;-40
2022/05/04 10:33:38;;;;;;;10.98;5.80;;;;;;;15.11;64.57;100398.75;5004548;28;20042;-41
2022/05/04 10:36:30;;;;;;;12.13;5.85;;;;;;;15.22;64.47;100399.44;4993390;28;20121;-44
2022/05/04 10:38:59;;;;;;;13.30;5.32;;;;;;;15.31;63.66;100403.66;4995211;28;20046;-38
2022/05/04 10:41:35;;;;;;;12.10;6.97;;;;;;;15.32;63.04;100400.16;5008361;28;20301;-43
2022/05/04 10:44:03;;;;;;;12.40;4.93;;;;;;;15.31;63.09;100401.03;5004890;28;20144;-43
2022/05/04 10:46:31;;;;;;;10.50;5.28;;;;;;;15.30;63.24;100394.06;5004371;28;20050;-41
2022/05/04 10:49:03;;;;;;;9.52;4.85;;;;;;;15.37;63.52;100393.09;5009015;28;20053;-43
2022/05/04 10:51:33;;;;;;;12.02;5.28;;;;;;;15.51;63.27;100397.22;5004924;28;20049;-42
2022/05/04 10:54:05;;;;;;;27.02;7.75;;;;;;;15.75;63.05;100398.53;5008030;28;20057;-46
2022/05/04 10:56:40;;;;;;;27.75;8.75;;;;;;;16.01;62.56;100394.56;5005288;28;20089;-39
2022/05/04 10:59:07;;;;;;;34.90;9.38;;;;;;;16.31;63.01;100380.91;5006975;28;20042;-44
2022/05/04 11:01:38;;;;;;;16.13;6.38;;;;;;;16.68;62.54;100385.31;5010188;28;20120;-45
2022/05/04 11:09:21;;;;;;;12.05;6.95;;;;;;;17.76;60.22;100394.94;5022738;27;20414;-46
2022/05/04 11:11:50;;;;;;;10.30;6.72;;;;;;;17.92;60.05;100387.50;4982856;28;20486;-42
2022/05/04 11:14:22;;;;;;;12.25;7.05;;;;;;;18.07;59.27;100394.09;4980778;28;20153;-41
2022/05/04 11:16:52;;;;;;;12.20;8.05;;;;;;;18.16;58.84;100395.59;5009464;28;20142;-44
2022/05/04 11:19:22;;;;;;;13.55;7.63;;;;;;;18.13;58.46;100383.44;4995847;28;20395;-45
2022/05/04 11:21:50;;;;;;;15.73;7.80;;;;;;;18.06;58.27;100381.88;4975283;28;20046;-42
2022/05/04 11:24:17;;;;;;;16.23;9.00;;;;;;;18.01;58.54;100383.78;4972819;28;20081;-39
2022/05/04 11:26:46;;;;;;;16.02;9.15;;;;;;;17.96;59.04;100387.38;4975127;28;20050;-43
2022/05/04 11:29:15;;;;;;;;;;;;;;;17.76;58.41;100385.31;4978162;28;20046;-41
2022/05/04 11:31:44;;;;;;;21.55;9.38;;;;;;;17.86;59.22;100378.06;4977625;28;19925;-41
2022/05/04 11:34:15;;;;;;;13.13;7.50;;;;;;;17.80;58.21;100380.88;4975718;28;20051;-45
2022/05/04 11:36:45;;;;;;;15.75;8.52;;;;;;;17.69;58.40;100376.78;4974588;28;20527;-45
2022/05/04 11:39:15;;;;;;;20.95;9.70;;;;;;;17.56;59.05;100371.00;4976905;28;20050;-42
2022/05/04 11:41:53;;;;;;;16.92;7.47;;;;;;;17.56;58.64;100372.78;4975157;28;20630;-44
2022/05/04 11:44:21;;;;;;;17.50;8.48;;;;;;;17.60;58.89;100363.94;4973626;28;20090;-40
2022/05/04 11:46:50;;;;;;;14.75;8.75;;;;;;;17.61;58.57;100370.88;4994084;28;20125;-44
2022/05/04 11:49:19;;;;;;;16.80;7.35;;;;;;;17.56;58.52;100364.94;4980806;28;20415;-44
2022/05/04 11:51:46;;;;;;;19.40;9.63;;;;;;;17.41;59.02;100364.41;4993385;28;20446;-40
2022/05/04 11:54:13;;;;;;;14.20;8.13;;;;;;;17.26;58.92;100365.66;4988440;28;20141;-41
2022/05/04 11:56:40;;;;;;;12.70;8.43;;;;;;;17.18;59.66;100363.25;4976995;28;20057;-42
2022/05/04 11:59:07;;;;;;;17.27;9.05;;;;;;;17.14;58.89;100360.75;4979406;28;20054;-42
2022/05/04 12:01:35;;;;;;;16.27;8.10;;;;;;;17.13;59.11;100362.53;4979093;28;20054;-42
2022/05/04 12:04:04;;;;;;;14.00;8.45;;;;;;;17.08;59.17;100359.13;4973148;28;20050;-44